sensor_id;sensor_type;location;lat;lon;timestamp;P1;durP1;ratioP1;P2;durP2;ratioP2
40320;SDS011;26027;51.454;6.628;2022-07-29T00:02:17;1.00;;;1.00;;
40320;SDS011;26027;51.454;6.628;2022-07-29T00:04:43;0.80;;;0.80;;
40320;SDS011;26027;51.454;6.628;2022-07-29T00:07:09;1.10;;;1.10;;
40320;SDS011;26027;51.454;6.628;2022-07-29T00:09:35;1.23;;;1.10;;
40320;SDS011;26027;51.454;6.628;2022-07-29T00:12:02;1.08;;;1.05;;
40320;SDS011;26027;51.454;6.628;2022-07-29T00:14:28;0.90;;;0.85;;
40320;SDS011;26027;51.454;6.628;2022-07-29T00:16:55;0.70;;;0.70;;
40320;SDS011;26027;51.454;6.628;2022-07-29T00:19:21;0.80;;;0.80;;
40320;SDS011;26027;51.454;6.628;2022-07-29T00:21:47;1.20;;;1.10;;
40320;SDS011;26027;51.454;6.628;2022-07-29T00:24:13;0.70;;;0.70;;
40320;SDS011;26027;51.454;6.628;2022-07-29T00:26:39;1.10;;;1.10;;
40320;SDS011;26027;51.454;6.628;2022-07-29T00:29:05;1.50;;;0.85;;
40320;SDS011;26027;51.454;6.628;2022-07-29T00:31:31;1.00;;;1.00;;
40320;SDS011;26027;51.454;6.628;2022-07-29T00:33:57;0.90;;;0.90;;
40320;SDS011;26027;51.454;6.628;2022-07-29T00:36:23;0.93;;;0.93;;
40320;SDS011;26027;51.454;6.628;2022-07-29T00:38:49;0.90;;;0.90;;
40320;SDS011;26027;51.454;6.628;2022-07-29T00:41:17;1.00;;;1.00;;
40320;SDS011;26027;51.454;6.628;2022-07-29T00:43:43;1.10;;;1.10;;
40320;SDS011;26027;51.454;6.628;2022-07-29T00:46:10;0.98;;;0.98;;
40320;SDS011;26027;51.454;6.628;2022-07-29T00:48:36;1.17;;;1.10;;
40320;SDS011;26027;51.454;6.628;2022-07-29T00:51:03;0.75;;;0.75;;
40320;SDS011;26027;51.454;6.628;2022-07-29T00:53:29;0.85;;;0.85;;
40320;SDS011;26027;51.454;6.628;2022-07-29T00:55:56;1.02;;;1.02;;
40320;SDS011;26027;51.454;6.628;2022-07-29T00:58:23;0.90;;;0.90;;
40320;SDS011;26027;51.454;6.628;2022-07-29T01:00:49;1.10;;;1.10;;
40320;SDS011;26027;51.454;6.628;2022-07-29T01:03:15;1.00;;;1.00;;
40320;SDS011;26027;51.454;6.628;2022-07-29T01:05:41;1.10;;;1.10;;
40320;SDS011;26027;51.454;6.628;2022-07-29T01:08:08;0.90;;;0.90;;
40320;SDS011;26027;51.454;6.628;2022-07-29T01:10:34;0.90;;;0.90;;
40320;SDS011;26027;51.454;6.628;2022-07-29T01:13:02;0.82;;;0.82;;
40320;SDS011;26027;51.454;6.628;2022-07-29T01:15:28;1.02;;;1.02;;
40320;SDS011;26027;51.454;6.628;2022-07-29T01:18:03;1.08;;;1.05;;
40320;SDS011;26027;51.454;6.628;2022-07-29T01:23:10;0.82;;;0.82;;
40320;SDS011;26027;51.454;6.628;2022-07-29T01:25:46;0.90;;;0.90;;
40320;SDS011;26027;51.454;6.628;2022-07-29T01:30:39;0.90;;;0.90;;
40320;SDS011;26027;51.454;6.628;2022-07-29T01:33:07;1.08;;;1.08;;
40320;SDS011;26027;51.454;6.628;2022-07-29T01:35:36;1.00;;;1.00;;
40320;SDS011;26027;51.454;6.628;2022-07-29T01:41:06;0.90;;;0.90;;
40320;SDS011;26027;51.454;6.628;2022-07-29T01:43:35;1.00;;;1.00;;
40320;SDS011;26027;51.454;6.628;2022-07-29T01:46:04;1.02;;;1.02;;
40320;SDS011;26027;51.454;6.628;2022-07-29T01:48:36;0.90;;;0.90;;
40320;SDS011;26027;51.454;6.628;2022-07-29T01:51:07;0.85;;;0.85;;
40320;SDS011;26027;51.454;6.628;2022-07-29T01:53:37;0.80;;;0.80;;
40320;SDS011;26027;51.454;6.628;2022-07-29T01:56:04;1.10;;;1.10;;
40320;SDS011;26027;51.454;6.628;2022-07-29T01:58:32;0.85;;;0.85;;
40320;SDS011;26027;51.454;6.628;2022-07-29T02:00:58;1.20;;;1.20;;
40320;SDS011;26027;51.454;6.628;2022-07-29T02:03:25;1.00;;;1.00;;
40320;SDS011;26027;51.454;6.628;2022-07-29T02:05:52;0.90;;;0.90;;
40320;SDS011;26027;51.454;6.628;2022-07-29T02:08:18;0.98;;;0.98;;
40320;SDS011;26027;51.454;6.628;2022-07-29T02:10:45;0.90;;;0.90;;
40320;SDS011;26027;51.454;6.628;2022-07-29T02:13:12;0.90;;;0.90;;
40320;SDS011;26027;51.454;6.628;2022-07-29T02:15:39;1.00;;;1.00;;
40320;SDS011;26027;51.454;6.628;2022-07-29T02:18:09;1.00;;;1.00;;
40320;SDS011;26027;51.454;6.628;2022-07-29T02:20:35;0.90;;;0.90;;
40320;SDS011;26027;51.454;6.628;2022-07-29T02:23:02;0.88;;;0.88;;
40320;SDS011;26027;51.454;6.628;2022-07-29T02:25:28;0.80;;;0.80;;
40320;SDS011;26027;51.454;6.628;2022-07-29T02:27:54;1.10;;;1.10;;
40320;SDS011;26027;51.454;6.628;2022-07-29T02:30:21;0.90;;;0.90;;
40320;SDS011;26027;51.454;6.628;2022-07-29T02:32:48;0.90;;;0.90;;
40320;SDS011;26027;51.454;6.628;2022-07-29T02:35:15;1.00;;;1.00;;
40320;SDS011;26027;51.454;6.628;2022-07-29T02:37:42;0.90;;;0.90;;
40320;SDS011;26027;51.454;6.628;2022-07-29T02:40:11;1.08;;;1.08;;
40320;SDS011;26027;51.454;6.628;2022-07-29T02:42:37;0.95;;;0.95;;
40320;SDS011;26027;51.454;6.628;2022-07-29T02:45:04;1.00;;;1.00;;
40320;SDS011;26027;51.454;6.628;2022-07-29T02:47:35;0.93;;;0.93;;
40320;SDS011;26027;51.454;6.628;2022-07-29T02:50:04;0.90;;;0.90;;
40320;SDS011;26027;51.454;6.628;2022-07-29T02:53:17;0.93;;;0.93;;
40320;SDS011;26027;51.454;6.628;2022-07-29T02:57:57;1.10;;;1.10;;
40320;SDS011;26027;51.454;6.628;2022-07-29T03:00:26;1.00;;;1.00;;
40320;SDS011;26027;51.454;6.628;2022-07-29T03:02:54;0.90;;;0.90;;
40320;SDS011;26027;51.454;6.628;2022-07-29T03:05:21;1.10;;;1.10;;
40320;SDS011;26027;51.454;6.628;2022-07-29T03:07:49;1.23;;;1.10;;
40320;SDS011;26027;51.454;6.628;2022-07-29T03:10:17;0.95;;;0.95;;
40320;SDS011;26027;51.454;6.628;2022-07-29T03:12:43;1.00;;;1.00;;
40320;SDS011;26027;51.454;6.628;2022-07-29T03:15:10;1.25;;;1.15;;
40320;SDS011;26027;51.454;6.628;2022-07-29T03:17:36;0.90;;;0.90;;
40320;SDS011;26027;51.454;6.628;2022-07-29T03:20:03;0.90;;;0.90;;
40320;SDS011;26027;51.454;6.628;2022-07-29T03:22:29;0.98;;;0.98;;
40320;SDS011;26027;51.454;6.628;2022-07-29T03:24:56;1.00;;;1.00;;
40320;SDS011;26027;51.454;6.628;2022-07-29T03:27:22;1.10;;;1.10;;
40320;SDS011;26027;51.454;6.628;2022-07-29T03:29:48;1.08;;;1.08;;
40320;SDS011;26027;51.454;6.628;2022-07-29T03:32:14;0.90;;;0.90;;
40320;SDS011;26027;51.454;6.628;2022-07-29T03:34:40;0.93;;;0.93;;
40320;SDS011;26027;51.454;6.628;2022-07-29T03:37:06;1.20;;;1.20;;
40320;SDS011;26027;51.454;6.628;2022-07-29T03:39:33;0.90;;;0.90;;
40320;SDS011;26027;51.454;6.628;2022-07-29T03:42:00;0.90;;;0.90;;
40320;SDS011;26027;51.454;6.628;2022-07-29T03:44:26;1.02;;;1.02;;
40320;SDS011;26027;51.454;6.628;2022-07-29T03:46:54;1.00;;;1.00;;
40320;SDS011;26027;51.454;6.628;2022-07-29T03:49:21;1.10;;;1.10;;
40320;SDS011;26027;51.454;6.628;2022-07-29T03:51:47;0.90;;;0.90;;
40320;SDS011;26027;51.454;6.628;2022-07-29T03:54:14;0.98;;;0.98;;
40320;SDS011;26027;51.454;6.628;2022-07-29T03:56:42;1.10;;;1.10;;
40320;SDS011;26027;51.454;6.628;2022-07-29T03:59:11;1.10;;;1.10;;
40320;SDS011;26027;51.454;6.628;2022-07-29T04:01:37;1.30;;;1.13;;
40320;SDS011;26027;51.454;6.628;2022-07-29T04:04:04;0.90;;;0.90;;
40320;SDS011;26027;51.454;6.628;2022-07-29T04:06:39;1.02;;;1.02;;
40320;SDS011;26027;51.454;6.628;2022-07-29T04:09:06;1.02;;;1.02;;
40320;SDS011;26027;51.454;6.628;2022-07-29T04:11:32;1.00;;;1.00;;
40320;SDS011;26027;51.454;6.628;2022-07-29T04:13:58;1.10;;;1.10;;
40320;SDS011;26027;51.454;6.628;2022-07-29T04:16:24;1.08;;;1.05;;
40320;SDS011;26027;51.454;6.628;2022-07-29T04:18:50;0.90;;;0.90;;
40320;SDS011;26027;51.454;6.628;2022-07-29T04:21:16;1.00;;;1.00;;
40320;SDS011;26027;51.454;6.628;2022-07-29T04:23:42;1.05;;;1.05;;
40320;SDS011;26027;51.454;6.628;2022-07-29T04:26:10;1.02;;;0.93;;
40320;SDS011;26027;51.454;6.628;2022-07-29T04:28:36;1.00;;;1.00;;
40320;SDS011;26027;51.454;6.628;2022-07-29T04:31:04;0.77;;;0.77;;
40320;SDS011;26027;51.454;6.628;2022-07-29T04:33:30;3.15;;;1.10;;
40320;SDS011;26027;51.454;6.628;2022-07-29T04:35:56;1.13;;;1.00;;
40320;SDS011;26027;51.454;6.628;2022-07-29T04:38:22;0.95;;;0.93;;
40320;SDS011;26027;51.454;6.628;2022-07-29T04:40:48;1.13;;;0.77;;
40320;SDS011;26027;51.454;6.628;2022-07-29T04:43:14;1.50;;;1.20;;
40320;SDS011;26027;51.454;6.628;2022-07-29T04:45:40;2.10;;;1.15;;
40320;SDS011;26027;51.454;6.628;2022-07-29T04:48:06;1.90;;;1.10;;
40320;SDS011;26027;51.454;6.628;2022-07-29T04:50:33;1.50;;;0.93;;
40320;SDS011;26027;51.454;6.628;2022-07-29T04:52:59;1.10;;;1.00;;
40320;SDS011;26027;51.454;6.628;2022-07-29T04:55:25;2.75;;;1.30;;
40320;SDS011;26027;51.454;6.628;2022-07-29T04:57:51;2.00;;;0.93;;
40320;SDS011;26027;51.454;6.628;2022-07-29T05:00:17;2.03;;;1.20;;
40320;SDS011;26027;51.454;6.628;2022-07-29T05:02:43;2.55;;;1.27;;
40320;SDS011;26027;51.454;6.628;2022-07-29T05:05:09;1.40;;;1.13;;
40320;SDS011;26027;51.454;6.628;2022-07-29T05:07:35;1.67;;;1.25;;
40320;SDS011;26027;51.454;6.628;2022-07-29T05:10:01;1.20;;;1.10;;
40320;SDS011;26027;51.454;6.628;2022-07-29T05:12:27;1.27;;;1.00;;
40320;SDS011;26027;51.454;6.628;2022-07-29T05:14:53;2.50;;;1.40;;
40320;SDS011;26027;51.454;6.628;2022-07-29T05:17:19;2.90;;;1.17;;
40320;SDS011;26027;51.454;6.628;2022-07-29T05:19:45;1.75;;;1.45;;
40320;SDS011;26027;51.454;6.628;2022-07-29T05:22:11;2.08;;;1.25;;
40320;SDS011;26027;51.454;6.628;2022-07-29T05:24:37;2.10;;;1.30;;
40320;SDS011;26027;51.454;6.628;2022-07-29T05:27:03;1.75;;;1.13;;
40320;SDS011;26027;51.454;6.628;2022-07-29T05:29:29;2.10;;;1.17;;
40320;SDS011;26027;51.454;6.628;2022-07-29T05:31:55;2.20;;;1.10;;
40320;SDS011;26027;51.454;6.628;2022-07-29T05:34:22;1.92;;;1.20;;
40320;SDS011;26027;51.454;6.628;2022-07-29T05:36:48;1.35;;;1.00;;
40320;SDS011;26027;51.454;6.628;2022-07-29T05:39:15;1.77;;;1.27;;
40320;SDS011;26027;51.454;6.628;2022-07-29T05:41:41;2.75;;;1.33;;
40320;SDS011;26027;51.454;6.628;2022-07-29T05:44:07;3.15;;;1.30;;
40320;SDS011;26027;51.454;6.628;2022-07-29T05:46:33;1.58;;;1.27;;
40320;SDS011;26027;51.454;6.628;2022-07-29T05:48:59;1.98;;;1.38;;
40320;SDS011;26027;51.454;6.628;2022-07-29T05:51:25;1.65;;;1.00;;
40320;SDS011;26027;51.454;6.628;2022-07-29T05:53:51;1.58;;;1.40;;
40320;SDS011;26027;51.454;6.628;2022-07-29T05:56:17;3.78;;;1.38;;
40320;SDS011;26027;51.454;6.628;2022-07-29T05:58:43;1.33;;;1.20;;
40320;SDS011;26027;51.454;6.628;2022-07-29T06:01:09;1.42;;;1.20;;
40320;SDS011;26027;51.454;6.628;2022-07-29T06:03:35;1.38;;;1.27;;
40320;SDS011;26027;51.454;6.628;2022-07-29T06:06:03;1.98;;;1.58;;
40320;SDS011;26027;51.454;6.628;2022-07-29T06:08:30;1.60;;;1.50;;
40320;SDS011;26027;51.454;6.628;2022-07-29T06:10:58;2.28;;;1.52;;
40320;SDS011;26027;51.454;6.628;2022-07-29T06:13:24;1.92;;;1.40;;
40320;SDS011;26027;51.454;6.628;2022-07-29T06:15:50;1.40;;;1.30;;
40320;SDS011;26027;51.454;6.628;2022-07-29T06:18:16;1.60;;;1.35;;
40320;SDS011;26027;51.454;6.628;2022-07-29T06:20:43;1.88;;;1.55;;
40320;SDS011;26027;51.454;6.628;2022-07-29T06:23:09;1.95;;;1.45;;
40320;SDS011;26027;51.454;6.628;2022-07-29T06:25:35;2.88;;;1.40;;
40320;SDS011;26027;51.454;6.628;2022-07-29T06:28:01;3.40;;;1.58;;
40320;SDS011;26027;51.454;6.628;2022-07-29T06:30:27;3.30;;;1.67;;
40320;SDS011;26027;51.454;6.628;2022-07-29T06:32:54;1.85;;;1.42;;
40320;SDS011;26027;51.454;6.628;2022-07-29T06:35:20;1.25;;;1.15;;
40320;SDS011;26027;51.454;6.628;2022-07-29T06:37:46;1.90;;;1.48;;
40320;SDS011;26027;51.454;6.628;2022-07-29T06:40:12;2.67;;;1.52;;
40320;SDS011;26027;51.454;6.628;2022-07-29T06:42:57;2.42;;;1.25;;
40320;SDS011;26027;51.454;6.628;2022-07-29T06:45:23;1.85;;;1.40;;
40320;SDS011;26027;51.454;6.628;2022-07-29T06:47:49;2.92;;;1.63;;
40320;SDS011;26027;51.454;6.628;2022-07-29T06:50:15;3.00;;;1.65;;
40320;SDS011;26027;51.454;6.628;2022-07-29T06:52:41;2.78;;;1.50;;
40320;SDS011;26027;51.454;6.628;2022-07-29T06:55:08;2.90;;;1.35;;
40320;SDS011;26027;51.454;6.628;2022-07-29T06:57:34;3.28;;;1.70;;
40320;SDS011;26027;51.454;6.628;2022-07-29T07:00:00;1.40;;;1.30;;
40320;SDS011;26027;51.454;6.628;2022-07-29T07:02:26;2.13;;;1.48;;
40320;SDS011;26027;51.454;6.628;2022-07-29T07:04:52;1.58;;;1.35;;
40320;SDS011;26027;51.454;6.628;2022-07-29T07:07:18;3.08;;;1.48;;
40320;SDS011;26027;51.454;6.628;2022-07-29T07:09:44;2.00;;;1.30;;
40320;SDS011;26027;51.454;6.628;2022-07-29T07:12:10;1.95;;;1.60;;
40320;SDS011;26027;51.454;6.628;2022-07-29T07:14:36;3.53;;;1.73;;
40320;SDS011;26027;51.454;6.628;2022-07-29T07:17:02;3.45;;;1.50;;
40320;SDS011;26027;51.454;6.628;2022-07-29T07:19:28;2.63;;;1.30;;
40320;SDS011;26027;51.454;6.628;2022-07-29T07:21:55;2.22;;;1.63;;
40320;SDS011;26027;51.454;6.628;2022-07-29T07:24:21;2.45;;;1.65;;
40320;SDS011;26027;51.454;6.628;2022-07-29T07:26:47;2.25;;;1.40;;
40320;SDS011;26027;51.454;6.628;2022-07-29T07:29:13;2.78;;;1.50;;
40320;SDS011;26027;51.454;6.628;2022-07-29T07:31:39;3.15;;;1.52;;
40320;SDS011;26027;51.454;6.628;2022-07-29T07:34:05;2.58;;;1.90;;
40320;SDS011;26027;51.454;6.628;2022-07-29T07:36:31;1.80;;;1.20;;
40320;SDS011;26027;51.454;6.628;2022-07-29T07:38:57;1.60;;;1.50;;
40320;SDS011;26027;51.454;6.628;2022-07-29T07:41:23;2.70;;;1.60;;
40320;SDS011;26027;51.454;6.628;2022-07-29T07:43:49;1.90;;;1.50;;
40320;SDS011;26027;51.454;6.628;2022-07-29T07:46:15;3.63;;;1.63;;
40320;SDS011;26027;51.454;6.628;2022-07-29T07:48:41;3.45;;;1.48;;
40320;SDS011;26027;51.454;6.628;2022-07-29T07:51:07;2.92;;;1.63;;
40320;SDS011;26027;51.454;6.628;2022-07-29T07:53:33;4.80;;;1.80;;
40320;SDS011;26027;51.454;6.628;2022-07-29T07:56:00;2.33;;;1.58;;
40320;SDS011;26027;51.454;6.628;2022-07-29T07:58:26;3.60;;;1.52;;
40320;SDS011;26027;51.454;6.628;2022-07-29T08:00:52;1.65;;;1.50;;
40320;SDS011;26027;51.454;6.628;2022-07-29T08:03:18;2.50;;;1.50;;
40320;SDS011;26027;51.454;6.628;2022-07-29T08:05:44;1.80;;;1.70;;
40320;SDS011;26027;51.454;6.628;2022-07-29T08:08:11;2.10;;;1.20;;
40320;SDS011;26027;51.454;6.628;2022-07-29T08:10:37;3.42;;;1.55;;
40320;SDS011;26027;51.454;6.628;2022-07-29T08:13:20;1.95;;;1.40;;
40320;SDS011;26027;51.454;6.628;2022-07-29T08:15:47;2.65;;;1.80;;
40320;SDS011;26027;51.454;6.628;2022-07-29T08:18:21;1.55;;;1.42;;
40320;SDS011;26027;51.454;6.628;2022-07-29T08:20:47;3.90;;;1.70;;
40320;SDS011;26027;51.454;6.628;2022-07-29T08:23:13;2.45;;;1.30;;
40320;SDS011;26027;51.454;6.628;2022-07-29T08:25:39;1.85;;;1.73;;
40320;SDS011;26027;51.454;6.628;2022-07-29T08:28:06;2.60;;;1.52;;
40320;SDS011;26027;51.454;6.628;2022-07-29T08:30:33;2.05;;;1.40;;
40320;SDS011;26027;51.454;6.628;2022-07-29T08:32:59;2.45;;;1.70;;
40320;SDS011;26027;51.454;6.628;2022-07-29T08:35:25;2.15;;;1.75;;
40320;SDS011;26027;51.454;6.628;2022-07-29T08:37:52;2.72;;;1.38;;
40320;SDS011;26027;51.454;6.628;2022-07-29T08:40:18;1.73;;;1.50;;
40320;SDS011;26027;51.454;6.628;2022-07-29T08:42:45;4.47;;;2.20;;
40320;SDS011;26027;51.454;6.628;2022-07-29T08:45:11;3.33;;;1.60;;
40320;SDS011;26027;51.454;6.628;2022-07-29T08:47:38;2.75;;;1.80;;
40320;SDS011;26027;51.454;6.628;2022-07-29T08:50:05;3.22;;;2.20;;
40320;SDS011;26027;51.454;6.628;2022-07-29T08:52:32;3.13;;;1.67;;
40320;SDS011;26027;51.454;6.628;2022-07-29T08:55:01;2.42;;;1.63;;
40320;SDS011;26027;51.454;6.628;2022-07-29T08:57:27;1.70;;;1.48;;
40320;SDS011;26027;51.454;6.628;2022-07-29T08:59:53;4.78;;;1.70;;
40320;SDS011;26027;51.454;6.628;2022-07-29T09:02:20;1.73;;;1.50;;
40320;SDS011;26027;51.454;6.628;2022-07-29T09:04:47;2.88;;;1.50;;
40320;SDS011;26027;51.454;6.628;2022-07-29T09:07:17;3.45;;;1.67;;
40320;SDS011;26027;51.454;6.628;2022-07-29T09:09:43;2.42;;;1.70;;
40320;SDS011;26027;51.454;6.628;2022-07-29T09:12:10;3.25;;;1.67;;
40320;SDS011;26027;51.454;6.628;2022-07-29T09:14:37;2.40;;;1.70;;
40320;SDS011;26027;51.454;6.628;2022-07-29T09:17:03;4.53;;;1.65;;
40320;SDS011;26027;51.454;6.628;2022-07-29T09:21:55;2.10;;;1.77;;
40320;SDS011;26027;51.454;6.628;2022-07-29T09:24:47;3.17;;;1.58;;
40320;SDS011;26027;51.454;6.628;2022-07-29T09:27:22;2.47;;;1.77;;
40320;SDS011;26027;51.454;6.628;2022-07-29T09:32:26;3.13;;;1.95;;
40320;SDS011;26027;51.454;6.628;2022-07-29T09:37:37;3.75;;;1.90;;
40320;SDS011;26027;51.454;6.628;2022-07-29T09:40:26;4.07;;;2.08;;
40320;SDS011;26027;51.454;6.628;2022-07-29T09:42:50;2.38;;;1.65;;
40320;SDS011;26027;51.454;6.628;2022-07-29T09:47:53;2.75;;;2.10;;
40320;SDS011;26027;51.454;6.628;2022-07-29T09:50:22;3.67;;;1.95;;
40320;SDS011;26027;51.454;6.628;2022-07-29T09:52:51;5.30;;;2.20;;
40320;SDS011;26027;51.454;6.628;2022-07-29T09:55:18;2.33;;;1.90;;
40320;SDS011;26027;51.454;6.628;2022-07-29T09:57:45;3.67;;;2.17;;
40320;SDS011;26027;51.454;6.628;2022-07-29T10:00:12;4.28;;;2.78;;
40320;SDS011;26027;51.454;6.628;2022-07-29T10:02:41;2.35;;;2.15;;
40320;SDS011;26027;51.454;6.628;2022-07-29T10:07:47;5.93;;;2.90;;
40320;SDS011;26027;51.454;6.628;2022-07-29T10:12:50;5.65;;;2.50;;
40320;SDS011;26027;51.454;6.628;2022-07-29T10:15:17;3.22;;;2.20;;
40320;SDS011;26027;51.454;6.628;2022-07-29T10:17:43;2.88;;;1.90;;
40320;SDS011;26027;51.454;6.628;2022-07-29T10:20:10;3.13;;;2.40;;
40320;SDS011;26027;51.454;6.628;2022-07-29T10:22:36;4.68;;;2.38;;
40320;SDS011;26027;51.454;6.628;2022-07-29T10:25:02;3.83;;;2.22;;
40320;SDS011;26027;51.454;6.628;2022-07-29T10:27:28;3.42;;;2.33;;
40320;SDS011;26027;51.454;6.628;2022-07-29T10:29:54;3.22;;;2.30;;
40320;SDS011;26027;51.454;6.628;2022-07-29T10:37:22;2.58;;;1.92;;
40320;SDS011;26027;51.454;6.628;2022-07-29T10:40:03;3.00;;;2.00;;
40320;SDS011;26027;51.454;6.628;2022-07-29T10:42:53;4.95;;;1.95;;
40320;SDS011;26027;51.454;6.628;2022-07-29T10:45:19;4.57;;;2.35;;
40320;SDS011;26027;51.454;6.628;2022-07-29T10:47:45;4.82;;;2.15;;
40320;SDS011;26027;51.454;6.628;2022-07-29T10:50:11;4.88;;;2.28;;
40320;SDS011;26027;51.454;6.628;2022-07-29T10:55:30;5.60;;;2.30;;
40320;SDS011;26027;51.454;6.628;2022-07-29T10:58:10;2.33;;;2.03;;
40320;SDS011;26027;51.454;6.628;2022-07-29T11:00:37;3.83;;;2.10;;
40320;SDS011;26027;51.454;6.628;2022-07-29T11:03:03;3.15;;;2.08;;
40320;SDS011;26027;51.454;6.628;2022-07-29T11:05:29;4.50;;;1.90;;
40320;SDS011;26027;51.454;6.628;2022-07-29T11:10:45;5.45;;;2.10;;
40320;SDS011;26027;51.454;6.628;2022-07-29T11:13:11;5.65;;;2.05;;
40320;SDS011;26027;51.454;6.628;2022-07-29T11:15:56;7.03;;;2.60;;
40320;SDS011;26027;51.454;6.628;2022-07-29T11:18:22;6.15;;;2.25;;
40320;SDS011;26027;51.454;6.628;2022-07-29T11:20:49;2.88;;;2.00;;
40320;SDS011;26027;51.454;6.628;2022-07-29T11:28:36;3.53;;;1.80;;
40320;SDS011;26027;51.454;6.628;2022-07-29T11:31:05;3.67;;;1.88;;
40320;SDS011;26027;51.454;6.628;2022-07-29T11:33:34;2.97;;;1.70;;
40320;SDS011;26027;51.454;6.628;2022-07-29T11:36:13;3.22;;;2.00;;
40320;SDS011;26027;51.454;6.628;2022-07-29T11:38:39;1.75;;;1.58;;
40320;SDS011;26027;51.454;6.628;2022-07-29T11:41:24;2.50;;;1.80;;
40320;SDS011;26027;51.454;6.628;2022-07-29T11:43:51;3.05;;;1.73;;
40320;SDS011;26027;51.454;6.628;2022-07-29T11:46:41;3.17;;;1.90;;
40320;SDS011;26027;51.454;6.628;2022-07-29T11:49:04;2.22;;;1.75;;
40320;SDS011;26027;51.454;6.628;2022-07-29T11:51:30;2.03;;;1.67;;
40320;SDS011;26027;51.454;6.628;2022-07-29T11:53:57;2.40;;;1.83;;
40320;SDS011;26027;51.454;6.628;2022-07-29T11:56:23;2.05;;;1.58;;
40320;SDS011;26027;51.454;6.628;2022-07-29T11:59:00;2.70;;;1.88;;
40320;SDS011;26027;51.454;6.628;2022-07-29T12:01:28;4.50;;;1.65;;
40320;SDS011;26027;51.454;6.628;2022-07-29T12:04:04;2.40;;;2.00;;
40320;SDS011;26027;51.454;6.628;2022-07-29T12:06:31;3.45;;;2.13;;
40320;SDS011;26027;51.454;6.628;2022-07-29T12:08:57;1.67;;;1.58;;
40320;SDS011;26027;51.454;6.628;2022-07-29T12:11:23;2.65;;;2.00;;
40320;SDS011;26027;51.454;6.628;2022-07-29T12:13:50;2.38;;;1.95;;
40320;SDS011;26027;51.454;6.628;2022-07-29T12:16:17;3.33;;;1.90;;
40320;SDS011;26027;51.454;6.628;2022-07-29T12:18:54;2.85;;;1.98;;
40320;SDS011;26027;51.454;6.628;2022-07-29T12:21:20;3.75;;;1.60;;
40320;SDS011;26027;51.454;6.628;2022-07-29T12:23:51;3.47;;;1.95;;
40320;SDS011;26027;51.454;6.628;2022-07-29T12:26:18;2.78;;;1.70;;
40320;SDS011;26027;51.454;6.628;2022-07-29T12:28:44;1.73;;;1.63;;
40320;SDS011;26027;51.454;6.628;2022-07-29T12:31:13;2.05;;;1.60;;
40320;SDS011;26027;51.454;6.628;2022-07-29T12:33:40;1.80;;;1.63;;
40320;SDS011;26027;51.454;6.628;2022-07-29T12:36:06;2.72;;;2.00;;
40320;SDS011;26027;51.454;6.628;2022-07-29T12:38:33;3.17;;;1.95;;
40320;SDS011;26027;51.454;6.628;2022-07-29T12:40:59;1.90;;;1.70;;
40320;SDS011;26027;51.454;6.628;2022-07-29T12:43:25;2.33;;;1.88;;
40320;SDS011;26027;51.454;6.628;2022-07-29T12:45:52;2.35;;;1.73;;
40320;SDS011;26027;51.454;6.628;2022-07-29T12:48:41;2.47;;;1.52;;
40320;SDS011;26027;51.454;6.628;2022-07-29T12:51:07;2.05;;;1.70;;
40320;SDS011;26027;51.454;6.628;2022-07-29T12:53:33;1.95;;;1.80;;
40320;SDS011;26027;51.454;6.628;2022-07-29T12:56:00;1.80;;;1.40;;
40320;SDS011;26027;51.454;6.628;2022-07-29T13:01:03;1.83;;;1.60;;
40320;SDS011;26027;51.454;6.628;2022-07-29T13:03:40;2.03;;;1.80;;
40320;SDS011;26027;51.454;6.628;2022-07-29T13:06:06;2.60;;;1.80;;
40320;SDS011;26027;51.454;6.628;2022-07-29T13:08:32;3.25;;;1.95;;
40320;SDS011;26027;51.454;6.628;2022-07-29T13:10:58;1.67;;;1.40;;
40320;SDS011;26027;51.454;6.628;2022-07-29T13:13:24;2.65;;;1.70;;
40320;SDS011;26027;51.454;6.628;2022-07-29T13:16:06;1.77;;;1.60;;
40320;SDS011;26027;51.454;6.628;2022-07-29T13:18:33;2.45;;;1.75;;
40320;SDS011;26027;51.454;6.628;2022-07-29T13:21:12;2.42;;;1.73;;
40320;SDS011;26027;51.454;6.628;2022-07-29T13:23:38;2.15;;;1.40;;
40320;SDS011;26027;51.454;6.628;2022-07-29T13:26:05;2.47;;;1.80;;
40320;SDS011;26027;51.454;6.628;2022-07-29T13:28:31;1.95;;;1.45;;
40320;SDS011;26027;51.454;6.628;2022-07-29T13:30:57;2.67;;;1.83;;
40320;SDS011;26027;51.454;6.628;2022-07-29T13:33:23;1.55;;;1.40;;
40320;SDS011;26027;51.454;6.628;2022-07-29T13:35:49;3.25;;;1.70;;
40320;SDS011;26027;51.454;6.628;2022-07-29T13:38:15;3.45;;;1.58;;
40320;SDS011;26027;51.454;6.628;2022-07-29T13:40:41;2.50;;;1.50;;
40320;SDS011;26027;51.454;6.628;2022-07-29T13:43:09;2.22;;;1.58;;
40320;SDS011;26027;51.454;6.628;2022-07-29T13:45:35;2.58;;;1.58;;
40320;SDS011;26027;51.454;6.628;2022-07-29T13:48:01;1.65;;;1.55;;
40320;SDS011;26027;51.454;6.628;2022-07-29T13:50:27;1.73;;;1.25;;
40320;SDS011;26027;51.454;6.628;2022-07-29T13:52:53;2.05;;;1.75;;
40320;SDS011;26027;51.454;6.628;2022-07-29T13:55:19;1.67;;;1.42;;
40320;SDS011;26027;51.454;6.628;2022-07-29T13:57:45;2.22;;;1.55;;
40320;SDS011;26027;51.454;6.628;2022-07-29T14:00:12;2.58;;;1.50;;
40320;SDS011;26027;51.454;6.628;2022-07-29T14:02:38;1.90;;;1.48;;
40320;SDS011;26027;51.454;6.628;2022-07-29T14:05:07;1.80;;;1.70;;
40320;SDS011;26027;51.454;6.628;2022-07-29T14:07:35;1.70;;;1.40;;
40320;SDS011;26027;51.454;6.628;2022-07-29T14:10:02;1.60;;;1.50;;
40320;SDS011;26027;51.454;6.628;2022-07-29T14:12:28;1.75;;;1.60;;
40320;SDS011;26027;51.454;6.628;2022-07-29T14:14:54;1.40;;;1.30;;
40320;SDS011;26027;51.454;6.628;2022-07-29T14:17:21;1.63;;;1.50;;
40320;SDS011;26027;51.454;6.628;2022-07-29T14:19:47;1.70;;;1.35;;
40320;SDS011;26027;51.454;6.628;2022-07-29T14:22:13;1.65;;;1.55;;
40320;SDS011;26027;51.454;6.628;2022-07-29T14:24:39;1.50;;;1.40;;
40320;SDS011;26027;51.454;6.628;2022-07-29T14:27:06;1.60;;;1.50;;
40320;SDS011;26027;51.454;6.628;2022-07-29T14:29:33;1.42;;;1.33;;
40320;SDS011;26027;51.454;6.628;2022-07-29T14:31:59;1.90;;;1.35;;
40320;SDS011;26027;51.454;6.628;2022-07-29T14:34:25;1.38;;;1.27;;
40320;SDS011;26027;51.454;6.628;2022-07-29T14:36:51;1.95;;;1.42;;
40320;SDS011;26027;51.454;6.628;2022-07-29T14:39:20;1.50;;;1.35;;
40320;SDS011;26027;51.454;6.628;2022-07-29T14:41:47;1.92;;;1.50;;
40320;SDS011;26027;51.454;6.628;2022-07-29T14:44:13;1.55;;;1.45;;
40320;SDS011;26027;51.454;6.628;2022-07-29T14:46:39;1.42;;;1.33;;
40320;SDS011;26027;51.454;6.628;2022-07-29T14:49:05;2.00;;;1.30;;
40320;SDS011;26027;51.454;6.628;2022-07-29T14:51:31;1.40;;;1.30;;
40320;SDS011;26027;51.454;6.628;2022-07-29T14:53:57;1.33;;;1.13;;
40320;SDS011;26027;51.454;6.628;2022-07-29T14:56:23;1.95;;;1.20;;
40320;SDS011;26027;51.454;6.628;2022-07-29T14:58:49;1.70;;;1.30;;
40320;SDS011;26027;51.454;6.628;2022-07-29T15:01:15;2.17;;;1.55;;
40320;SDS011;26027;51.454;6.628;2022-07-29T15:03:41;1.92;;;1.58;;
40320;SDS011;26027;51.454;6.628;2022-07-29T15:06:07;1.50;;;1.40;;
40320;SDS011;26027;51.454;6.628;2022-07-29T15:08:33;1.63;;;1.40;;
40320;SDS011;26027;51.454;6.628;2022-07-29T15:10:59;1.48;;;1.17;;
40320;SDS011;26027;51.454;6.628;2022-07-29T15:13:25;1.42;;;1.30;;
40320;SDS011;26027;51.454;6.628;2022-07-29T15:15:51;2.00;;;1.27;;
40320;SDS011;26027;51.454;6.628;2022-07-29T15:18:18;2.20;;;1.38;;
40320;SDS011;26027;51.454;6.628;2022-07-29T15:20:44;1.60;;;1.50;;
40320;SDS011;26027;51.454;6.628;2022-07-29T15:23:11;1.77;;;1.42;;
40320;SDS011;26027;51.454;6.628;2022-07-29T15:25:38;1.60;;;1.50;;
40320;SDS011;26027;51.454;6.628;2022-07-29T15:28:04;1.77;;;1.40;;
40320;SDS011;26027;51.454;6.628;2022-07-29T15:30:32;1.30;;;1.20;;
40320;SDS011;26027;51.454;6.628;2022-07-29T15:32:58;1.50;;;1.15;;
40320;SDS011;26027;51.454;6.628;2022-07-29T15:35:24;2.83;;;1.40;;